KSUS

Spirit of St Louis Airport

St Louis, Missouri, USA
METAR KSUS 220354Z 12008G20KT 10SM CLR M04/M11 A3018 RMK AO2 SLP232 T10391106 $
Observed Flight Rules
Jan-22 @ 03:54 UTC (55 minutes ago) Visual Flight Rules
Wind Visibility Clouds
120° at 8 knots
 Gusting to 20 knots
10 miles
  • Clear skies
Temperatures Readings
Current -4°C / 25°F
Dewpoint -11°C / 12°F
Humidity 59%
Altimeter 30.18" Hg
Pressure 1023.2 hPa
Elevation 141
METAR KSUS 220354Z 12008G20KT 10SM CLR M04/M11 A3018 RMK AO2 SLP232 T10391106 $
Observed Flight Rules
Jan-22 @ 03:54 UTC
(55 minutes ago)
VFR
Wind Visibility
120° at 8 knots
 Gusting to 20 knots
10 miles
Clouds
  • Clear skies
Temperature Dewpoint
-4°C / 25°F -11°C / 12°F
Humidity Altimeter Pressure
59% 30.18" Hg 1023.2 hPa